sensor_id;sensor_type;location;lat;lon;timestamp;temperature;humidity
13808;DHT22;40769;51.512;5.494;2024-01-15T00:01:49;7.50;99.90
13808;DHT22;40769;51.512;5.494;2024-01-15T00:04:15;7.30;99.90
13808;DHT22;40769;51.512;5.494;2024-01-15T00:06:40;7.20;99.90
13808;DHT22;40769;51.512;5.494;2024-01-15T00:09:06;7.10;99.90
13808;DHT22;40769;51.512;5.494;2024-01-15T00:11:32;7.00;99.90
13808;DHT22;40769;51.512;5.494;2024-01-15T00:13:58;7.00;99.90
13808;DHT22;40769;51.512;5.494;2024-01-15T00:16:24;7.60;99.90
13808;DHT22;40769;51.512;5.494;2024-01-15T00:18:49;7.00;99.90
13808;DHT22;40769;51.512;5.494;2024-01-15T00:21:15;7.00;99.90
13808;DHT22;40769;51.512;5.494;2024-01-15T00:23:44;7.00;99.90
13808;DHT22;40769;51.512;5.494;2024-01-15T00:26:10;7.00;99.90
13808;DHT22;40769;51.512;5.494;2024-01-15T00:28:36;7.10;99.90
13808;DHT22;40769;51.512;5.494;2024-01-15T00:31:03;7.10;99.90
13808;DHT22;40769;51.512;5.494;2024-01-15T00:33:29;7.30;99.90
13808;DHT22;40769;51.512;5.494;2024-01-15T00:35:54;7.40;99.90
13808;DHT22;40769;51.512;5.494;2024-01-15T00:38:20;7.40;99.90
13808;DHT22;40769;51.512;5.494;2024-01-15T00:40:46;8.50;99.90
13808;DHT22;40769;51.512;5.494;2024-01-15T00:43:11;7.80;99.90
13808;DHT22;40769;51.512;5.494;2024-01-15T00:45:37;7.10;99.90
13808;DHT22;40769;51.512;5.494;2024-01-15T00:48:03;7.10;99.90
13808;DHT22;40769;51.512;5.494;2024-01-15T00:50:29;7.00;99.90
13808;DHT22;40769;51.512;5.494;2024-01-15T00:52:55;6.90;99.90
13808;DHT22;40769;51.512;5.494;2024-01-15T00:55:20;6.90;99.90
13808;DHT22;40769;51.512;5.494;2024-01-15T00:57:46;7.80;99.90
13808;DHT22;40769;51.512;5.494;2024-01-15T01:00:12;6.80;99.90
13808;DHT22;40769;51.512;5.494;2024-01-15T01:02:37;6.80;99.90
13808;DHT22;40769;51.512;5.494;2024-01-15T01:05:03;7.10;99.90
13808;DHT22;40769;51.512;5.494;2024-01-15T01:07:29;6.80;99.90
13808;DHT22;40769;51.512;5.494;2024-01-15T01:09:55;6.90;99.90
13808;DHT22;40769;51.512;5.494;2024-01-15T01:12:20;7.00;99.90
13808;DHT22;40769;51.512;5.494;2024-01-15T01:14:46;7.00;99.90
13808;DHT22;40769;51.512;5.494;2024-01-15T01:17:12;7.60;99.90
13808;DHT22;40769;51.512;5.494;2024-01-15T01:19:37;7.10;99.90
13808;DHT22;40769;51.512;5.494;2024-01-15T01:22:03;7.30;99.90
13808;DHT22;40769;51.512;5.494;2024-01-15T01:24:31;7.00;99.90
13808;DHT22;40769;51.512;5.494;2024-01-15T01:26:57;6.90;99.90
13808;DHT22;40769;51.512;5.494;2024-01-15T01:29:23;6.70;99.90
13808;DHT22;40769;51.512;5.494;2024-01-15T01:31:48;6.70;99.90
13808;DHT22;40769;51.512;5.494;2024-01-15T01:34:15;6.60;99.90
13808;DHT22;40769;51.512;5.494;2024-01-15T01:36:44;6.60;99.90
13808;DHT22;40769;51.512;5.494;2024-01-15T01:39:10;6.60;99.90
13808;DHT22;40769;51.512;5.494;2024-01-15T01:41:37;6.70;99.90
13808;DHT22;40769;51.512;5.494;2024-01-15T01:44:03;6.70;99.90
13808;DHT22;40769;51.512;5.494;2024-01-15T01:46:29;7.30;99.90
13808;DHT22;40769;51.512;5.494;2024-01-15T01:48:55;6.80;99.90
13808;DHT22;40769;51.512;5.494;2024-01-15T01:51:24;6.80;99.90
13808;DHT22;40769;51.512;5.494;2024-01-15T01:53:51;6.80;99.90
13808;DHT22;40769;51.512;5.494;2024-01-15T01:56:17;6.80;99.90
13808;DHT22;40769;51.512;5.494;2024-01-15T01:58:44;6.80;99.90
13808;DHT22;40769;51.512;5.494;2024-01-15T02:01:11;7.50;99.90
13808;DHT22;40769;51.512;5.494;2024-01-15T02:03:39;7.00;99.90
13808;DHT22;40769;51.512;5.494;2024-01-15T02:06:05;7.30;99.90
13808;DHT22;40769;51.512;5.494;2024-01-15T02:08:31;7.50;99.90
13808;DHT22;40769;51.512;5.494;2024-01-15T02:10:57;7.50;99.90
13808;DHT22;40769;51.512;5.494;2024-01-15T02:13:23;7.80;99.90
13808;DHT22;40769;51.512;5.494;2024-01-15T02:15:49;8.50;99.90
13808;DHT22;40769;51.512;5.494;2024-01-15T02:18:14;7.10;99.90
13808;DHT22;40769;51.512;5.494;2024-01-15T02:20:40;7.10;99.90
13808;DHT22;40769;51.512;5.494;2024-01-15T02:23:13;7.00;99.90
13808;DHT22;40769;51.512;5.494;2024-01-15T02:25:44;7.00;99.90
13808;DHT22;40769;51.512;5.494;2024-01-15T02:28:12;6.90;99.90
13808;DHT22;40769;51.512;5.494;2024-01-15T02:30:39;6.80;99.90
13808;DHT22;40769;51.512;5.494;2024-01-15T02:33:06;6.80;99.90
13808;DHT22;40769;51.512;5.494;2024-01-15T02:35:32;6.80;99.90
13808;DHT22;40769;51.512;5.494;2024-01-15T02:37:58;6.70;99.90
13808;DHT22;40769;51.512;5.494;2024-01-15T02:40:24;6.80;99.90
13808;DHT22;40769;51.512;5.494;2024-01-15T02:42:50;6.80;99.90
13808;DHT22;40769;51.512;5.494;2024-01-15T02:45:17;7.50;99.90
13808;DHT22;40769;51.512;5.494;2024-01-15T02:47:43;6.80;99.90
13808;DHT22;40769;51.512;5.494;2024-01-15T02:50:08;7.40;99.90
13808;DHT22;40769;51.512;5.494;2024-01-15T02:52:34;7.00;99.90
13808;DHT22;40769;51.512;5.494;2024-01-15T02:55:00;7.10;99.90
13808;DHT22;40769;51.512;5.494;2024-01-15T02:57:25;7.10;99.90
13808;DHT22;40769;51.512;5.494;2024-01-15T02:59:51;7.00;99.90
13808;DHT22;40769;51.512;5.494;2024-01-15T03:02:16;6.90;99.90
13808;DHT22;40769;51.512;5.494;2024-01-15T03:04:45;6.80;99.90
13808;DHT22;40769;51.512;5.494;2024-01-15T03:07:11;6.70;99.90
13808;DHT22;40769;51.512;5.494;2024-01-15T03:09:36;6.60;99.90
13808;DHT22;40769;51.512;5.494;2024-01-15T03:12:02;7.30;99.90
13808;DHT22;40769;51.512;5.494;2024-01-15T03:14:28;6.60;99.90
13808;DHT22;40769;51.512;5.494;2024-01-15T03:16:54;6.60;99.90
13808;DHT22;40769;51.512;5.494;2024-01-15T03:19:19;6.60;99.90
13808;DHT22;40769;51.512;5.494;2024-01-15T03:21:45;6.70;99.90
13808;DHT22;40769;51.512;5.494;2024-01-15T03:24:11;6.60;99.90
13808;DHT22;40769;51.512;5.494;2024-01-15T03:26:36;6.70;99.90
13808;DHT22;40769;51.512;5.494;2024-01-15T03:29:02;6.80;99.90
13808;DHT22;40769;51.512;5.494;2024-01-15T03:31:27;6.90;99.90
13808;DHT22;40769;51.512;5.494;2024-01-15T03:33:53;7.00;99.90
13808;DHT22;40769;51.512;5.494;2024-01-15T03:36:19;7.10;99.90
13808;DHT22;40769;51.512;5.494;2024-01-15T03:38:47;7.40;99.90
13808;DHT22;40769;51.512;5.494;2024-01-15T03:41:13;7.00;99.90
13808;DHT22;40769;51.512;5.494;2024-01-15T03:43:39;6.90;99.90
13808;DHT22;40769;51.512;5.494;2024-01-15T03:46:05;6.70;99.90
13808;DHT22;40769;51.512;5.494;2024-01-15T03:48:31;7.00;99.90
13808;DHT22;40769;51.512;5.494;2024-01-15T03:50:57;6.40;99.90
13808;DHT22;40769;51.512;5.494;2024-01-15T03:53:22;6.40;99.90
13808;DHT22;40769;51.512;5.494;2024-01-15T03:55:49;6.30;99.90
13808;DHT22;40769;51.512;5.494;2024-01-15T03:58:14;6.30;99.90
13808;DHT22;40769;51.512;5.494;2024-01-15T04:00:40;6.20;99.90
13808;DHT22;40769;51.512;5.494;2024-01-15T04:03:06;6.30;99.90
13808;DHT22;40769;51.512;5.494;2024-01-15T04:05:32;6.30;99.90
13808;DHT22;40769;51.512;5.494;2024-01-15T04:07:57;6.30;99.90
13808;DHT22;40769;51.512;5.494;2024-01-15T04:10:23;6.40;99.90
13808;DHT22;40769;51.512;5.494;2024-01-15T04:12:49;6.40;99.90
13808;DHT22;40769;51.512;5.494;2024-01-15T04:15:15;6.50;99.90
13808;DHT22;40769;51.512;5.494;2024-01-15T04:17:40;6.60;99.90
13808;DHT22;40769;51.512;5.494;2024-01-15T04:20:06;6.80;99.90
13808;DHT22;40769;51.512;5.494;2024-01-15T04:22:36;7.00;99.90
13808;DHT22;40769;51.512;5.494;2024-01-15T04:25:02;7.40;99.90
13808;DHT22;40769;51.512;5.494;2024-01-15T04:27:28;7.20;99.90
13808;DHT22;40769;51.512;5.494;2024-01-15T04:29:54;7.10;99.90
13808;DHT22;40769;51.512;5.494;2024-01-15T04:32:19;7.10;99.90
13808;DHT22;40769;51.512;5.494;2024-01-15T04:34:45;7.00;99.90
13808;DHT22;40769;51.512;5.494;2024-01-15T04:37:11;7.00;99.90
13808;DHT22;40769;51.512;5.494;2024-01-15T04:39:37;7.10;99.90
13808;DHT22;40769;51.512;5.494;2024-01-15T04:42:03;7.30;99.90
13808;DHT22;40769;51.512;5.494;2024-01-15T04:44:29;7.40;99.90
13808;DHT22;40769;51.512;5.494;2024-01-15T04:46:54;7.40;99.90
13808;DHT22;40769;51.512;5.494;2024-01-15T04:49:20;7.40;99.90
13808;DHT22;40769;51.512;5.494;2024-01-15T04:51:46;7.30;99.90
13808;DHT22;40769;51.512;5.494;2024-01-15T04:54:11;7.40;99.90
13808;DHT22;40769;51.512;5.494;2024-01-15T04:56:37;7.30;99.90
13808;DHT22;40769;51.512;5.494;2024-01-15T04:59:03;7.40;99.90
13808;DHT22;40769;51.512;5.494;2024-01-15T05:01:32;7.40;99.90
13808;DHT22;40769;51.512;5.494;2024-01-15T05:03:58;7.40;99.90
13808;DHT22;40769;51.512;5.494;2024-01-15T05:06:24;7.50;99.90
13808;DHT22;40769;51.512;5.494;2024-01-15T05:08:49;8.40;99.90
13808;DHT22;40769;51.512;5.494;2024-01-15T05:11:15;7.80;99.90
13808;DHT22;40769;51.512;5.494;2024-01-15T05:13:41;7.80;99.90
13808;DHT22;40769;51.512;5.494;2024-01-15T05:16:06;7.70;99.90
13808;DHT22;40769;51.512;5.494;2024-01-15T05:18:34;7.70;99.90
13808;DHT22;40769;51.512;5.494;2024-01-15T05:21:03;7.60;99.90
13808;DHT22;40769;51.512;5.494;2024-01-15T05:23:28;5.70;99.90
13808;DHT22;40769;51.512;5.494;2024-01-15T05:25:54;5.90;99.90
13808;DHT22;40769;51.512;5.494;2024-01-15T05:28:22;7.50;99.90
13808;DHT22;40769;51.512;5.494;2024-01-15T05:30:48;7.40;99.90
13808;DHT22;40769;51.512;5.494;2024-01-15T05:33:16;7.30;99.90
13808;DHT22;40769;51.512;5.494;2024-01-15T05:35:45;7.30;99.90
13808;DHT22;40769;51.512;5.494;2024-01-15T05:38:10;7.20;99.90
13808;DHT22;40769;51.512;5.494;2024-01-15T05:40:36;7.10;99.90
13808;DHT22;40769;51.512;5.494;2024-01-15T05:43:01;7.10;99.90
13808;DHT22;40769;51.512;5.494;2024-01-15T05:45:28;7.00;99.90
13808;DHT22;40769;51.512;5.494;2024-01-15T05:47:54;8.20;99.90
13808;DHT22;40769;51.512;5.494;2024-01-15T05:50:20;7.20;99.90
13808;DHT22;40769;51.512;5.494;2024-01-15T05:52:45;7.50;99.90
13808;DHT22;40769;51.512;5.494;2024-01-15T05:55:11;7.30;99.90
13808;DHT22;40769;51.512;5.494;2024-01-15T05:57:37;7.30;99.90
13808;DHT22;40769;51.512;5.494;2024-01-15T06:00:03;7.20;99.90
13808;DHT22;40769;51.512;5.494;2024-01-15T06:02:29;7.10;99.90
13808;DHT22;40769;51.512;5.494;2024-01-15T06:04:55;7.00;99.90
13808;DHT22;40769;51.512;5.494;2024-01-15T06:07:21;6.90;99.90
13808;DHT22;40769;51.512;5.494;2024-01-15T06:09:48;6.80;99.90
13808;DHT22;40769;51.512;5.494;2024-01-15T06:12:13;6.80;99.90
13808;DHT22;40769;51.512;5.494;2024-01-15T06:14:39;7.40;99.90
13808;DHT22;40769;51.512;5.494;2024-01-15T06:17:06;7.00;99.90
13808;DHT22;40769;51.512;5.494;2024-01-15T06:19:32;6.90;99.90
13808;DHT22;40769;51.512;5.494;2024-01-15T06:21:58;7.20;99.90
13808;DHT22;40769;51.512;5.494;2024-01-15T06:24:23;7.10;99.90
13808;DHT22;40769;51.512;5.494;2024-01-15T06:26:49;7.10;99.90
13808;DHT22;40769;51.512;5.494;2024-01-15T06:29:15;7.30;99.90
13808;DHT22;40769;51.512;5.494;2024-01-15T06:31:41;7.40;99.90
13808;DHT22;40769;51.512;5.494;2024-01-15T06:34:06;8.50;99.90
13808;DHT22;40769;51.512;5.494;2024-01-15T06:36:32;7.60;99.90
13808;DHT22;40769;51.512;5.494;2024-01-15T06:38:57;8.70;99.90
13808;DHT22;40769;51.512;5.494;2024-01-15T06:41:23;7.60;99.90
13808;DHT22;40769;51.512;5.494;2024-01-15T06:43:50;8.70;99.90
13808;DHT22;40769;51.512;5.494;2024-01-15T06:46:22;7.30;99.90
13808;DHT22;40769;51.512;5.494;2024-01-15T06:48:48;7.20;99.90
13808;DHT22;40769;51.512;5.494;2024-01-15T06:51:15;7.20;99.90
13808;DHT22;40769;51.512;5.494;2024-01-15T06:53:41;7.20;99.90
13808;DHT22;40769;51.512;5.494;2024-01-15T06:56:06;7.30;99.90
13808;DHT22;40769;51.512;5.494;2024-01-15T06:58:32;7.30;99.90
13808;DHT22;40769;51.512;5.494;2024-01-15T07:00:58;6.80;99.90
13808;DHT22;40769;51.512;5.494;2024-01-15T07:03:24;7.10;99.90
13808;DHT22;40769;51.512;5.494;2024-01-15T07:05:49;7.40;99.90
13808;DHT22;40769;51.512;5.494;2024-01-15T07:08:15;6.90;99.90
13808;DHT22;40769;51.512;5.494;2024-01-15T07:10:41;6.90;99.90
13808;DHT22;40769;51.512;5.494;2024-01-15T07:13:06;7.00;99.90
13808;DHT22;40769;51.512;5.494;2024-01-15T07:15:32;7.90;99.90
13808;DHT22;40769;51.512;5.494;2024-01-15T07:17:58;7.20;99.90
13808;DHT22;40769;51.512;5.494;2024-01-15T07:20:23;7.10;99.90
13808;DHT22;40769;51.512;5.494;2024-01-15T07:22:49;8.20;99.90
13808;DHT22;40769;51.512;5.494;2024-01-15T07:25:15;7.00;99.90
13808;DHT22;40769;51.512;5.494;2024-01-15T07:27:41;6.90;99.90
13808;DHT22;40769;51.512;5.494;2024-01-15T07:30:11;6.80;99.90
13808;DHT22;40769;51.512;5.494;2024-01-15T07:32:36;6.80;99.90
13808;DHT22;40769;51.512;5.494;2024-01-15T07:35:02;7.60;99.90
13808;DHT22;40769;51.512;5.494;2024-01-15T07:37:29;6.70;99.90
13808;DHT22;40769;51.512;5.494;2024-01-15T07:39:54;6.90;99.90
13808;DHT22;40769;51.512;5.494;2024-01-15T07:42:20;6.90;99.90
13808;DHT22;40769;51.512;5.494;2024-01-15T07:44:46;7.00;99.90
13808;DHT22;40769;51.512;5.494;2024-01-15T07:47:12;7.20;99.90
13808;DHT22;40769;51.512;5.494;2024-01-15T07:49:38;7.40;99.90
13808;DHT22;40769;51.512;5.494;2024-01-15T07:52:03;7.60;99.90
13808;DHT22;40769;51.512;5.494;2024-01-15T07:54:31;7.70;99.90
13808;DHT22;40769;51.512;5.494;2024-01-15T07:57:01;7.90;99.90
13808;DHT22;40769;51.512;5.494;2024-01-15T07:59:28;7.80;99.90
13808;DHT22;40769;51.512;5.494;2024-01-15T08:01:54;8.50;99.90
13808;DHT22;40769;51.512;5.494;2024-01-15T08:04:20;7.80;99.90
13808;DHT22;40769;51.512;5.494;2024-01-15T08:06:45;7.70;99.90
13808;DHT22;40769;51.512;5.494;2024-01-15T08:09:12;7.70;99.90
13808;DHT22;40769;51.512;5.494;2024-01-15T08:11:42;7.50;99.90
13808;DHT22;40769;51.512;5.494;2024-01-15T08:14:11;7.40;99.90
13808;DHT22;40769;51.512;5.494;2024-01-15T08:16:37;7.30;99.90
13808;DHT22;40769;51.512;5.494;2024-01-15T08:19:03;7.20;99.90
13808;DHT22;40769;51.512;5.494;2024-01-15T08:21:29;7.10;99.90
13808;DHT22;40769;51.512;5.494;2024-01-15T08:23:57;7.30;99.90
13808;DHT22;40769;51.512;5.494;2024-01-15T08:26:22;6.90;99.90
13808;DHT22;40769;51.512;5.494;2024-01-15T08:28:48;6.90;99.90
13808;DHT22;40769;51.512;5.494;2024-01-15T08:31:14;6.90;99.90
13808;DHT22;40769;51.512;5.494;2024-01-15T08:33:43;6.90;99.90
13808;DHT22;40769;51.512;5.494;2024-01-15T08:36:12;6.90;99.90
13808;DHT22;40769;51.512;5.494;2024-01-15T08:38:37;7.20;99.90
13808;DHT22;40769;51.512;5.494;2024-01-15T08:41:04;7.10;99.90
13808;DHT22;40769;51.512;5.494;2024-01-15T08:43:29;7.20;99.90
13808;DHT22;40769;51.512;5.494;2024-01-15T08:45:57;7.20;99.90
13808;DHT22;40769;51.512;5.494;2024-01-15T08:48:23;7.20;99.90
13808;DHT22;40769;51.512;5.494;2024-01-15T08:50:48;7.20;99.90
13808;DHT22;40769;51.512;5.494;2024-01-15T08:53:14;7.20;99.90
13808;DHT22;40769;51.512;5.494;2024-01-15T08:55:40;7.20;99.90
13808;DHT22;40769;51.512;5.494;2024-01-15T08:58:09;7.20;99.90
13808;DHT22;40769;51.512;5.494;2024-01-15T09:00:34;7.10;99.90
13808;DHT22;40769;51.512;5.494;2024-01-15T09:03:00;7.20;99.90
13808;DHT22;40769;51.512;5.494;2024-01-15T09:05:26;7.50;99.90
13808;DHT22;40769;51.512;5.494;2024-01-15T09:07:51;7.20;99.90
13808;DHT22;40769;51.512;5.494;2024-01-15T09:10:18;7.20;99.90
13808;DHT22;40769;51.512;5.494;2024-01-15T09:12:44;7.20;99.90
13808;DHT22;40769;51.512;5.494;2024-01-15T09:15:10;7.30;99.90
13808;DHT22;40769;51.512;5.494;2024-01-15T09:17:36;8.00;99.90
13808;DHT22;40769;51.512;5.494;2024-01-15T09:20:02;7.40;99.90
13808;DHT22;40769;51.512;5.494;2024-01-15T09:22:29;7.60;99.90
13808;DHT22;40769;51.512;5.494;2024-01-15T09:24:55;7.70;99.90
13808;DHT22;40769;51.512;5.494;2024-01-15T09:27:21;7.80;99.90
13808;DHT22;40769;51.512;5.494;2024-01-15T09:29:46;7.80;99.90
13808;DHT22;40769;51.512;5.494;2024-01-15T09:32:12;7.70;99.90
13808;DHT22;40769;51.512;5.494;2024-01-15T09:34:39;8.90;99.90
13808;DHT22;40769;51.512;5.494;2024-01-15T09:37:05;7.50;99.90
13808;DHT22;40769;51.512;5.494;2024-01-15T09:39:30;7.40;99.90
13808;DHT22;40769;51.512;5.494;2024-01-15T09:41:58;7.30;99.90
13808;DHT22;40769;51.512;5.494;2024-01-15T09:44:23;7.70;99.90
13808;DHT22;40769;51.512;5.494;2024-01-15T09:46:49;7.10;99.90
13808;DHT22;40769;51.512;5.494;2024-01-15T09:49:18;7.00;99.90
13808;DHT22;40769;51.512;5.494;2024-01-15T09:51:45;6.90;99.90
13808;DHT22;40769;51.512;5.494;2024-01-15T09:54:11;6.90;99.90
13808;DHT22;40769;51.512;5.494;2024-01-15T09:56:39;6.90;99.90
13808;DHT22;40769;51.512;5.494;2024-01-15T09:59:05;6.90;99.90
13808;DHT22;40769;51.512;5.494;2024-01-15T10:01:36;6.90;99.90
13808;DHT22;40769;51.512;5.494;2024-01-15T10:04:03;6.90;99.90
13808;DHT22;40769;51.512;5.494;2024-01-15T10:06:29;6.80;99.90
13808;DHT22;40769;51.512;5.494;2024-01-15T10:08:57;6.80;99.90
13808;DHT22;40769;51.512;5.494;2024-01-15T10:11:26;6.70;99.90
13808;DHT22;40769;51.512;5.494;2024-01-15T10:13:52;6.60;99.90
13808;DHT22;40769;51.512;5.494;2024-01-15T10:16:21;6.60;99.90
13808;DHT22;40769;51.512;5.494;2024-01-15T10:18:51;6.80;99.90
13808;DHT22;40769;51.512;5.494;2024-01-15T10:21:17;6.70;99.90
13808;DHT22;40769;51.512;5.494;2024-01-15T10:23:43;6.80;99.90
13808;DHT22;40769;51.512;5.494;2024-01-15T10:26:09;7.00;99.90
13808;DHT22;40769;51.512;5.494;2024-01-15T10:28:37;7.20;99.90
13808;DHT22;40769;51.512;5.494;2024-01-15T10:31:03;7.30;99.90
13808;DHT22;40769;51.512;5.494;2024-01-15T10:33:30;7.50;99.90
13808;DHT22;40769;51.512;5.494;2024-01-15T10:35:57;7.60;99.90
13808;DHT22;40769;51.512;5.494;2024-01-15T10:38:24;7.60;99.90
13808;DHT22;40769;51.512;5.494;2024-01-15T10:40:54;7.70;99.90
13808;DHT22;40769;51.512;5.494;2024-01-15T10:43:20;7.90;99.90
13808;DHT22;40769;51.512;5.494;2024-01-15T10:45:47;8.20;99.90
13808;DHT22;40769;51.512;5.494;2024-01-15T10:48:17;8.50;99.90
13808;DHT22;40769;51.512;5.494;2024-01-15T10:50:46;8.80;99.90
13808;DHT22;40769;51.512;5.494;2024-01-15T10:53:14;8.90;99.90
13808;DHT22;40769;51.512;5.494;2024-01-15T10:55:41;8.80;99.90
13808;DHT22;40769;51.512;5.494;2024-01-15T10:58:08;8.80;99.90
13808;DHT22;40769;51.512;5.494;2024-01-15T11:00:35;8.70;99.90
13808;DHT22;40769;51.512;5.494;2024-01-15T11:03:03;9.20;99.90
13808;DHT22;40769;51.512;5.494;2024-01-15T11:05:36;8.60;99.90
13808;DHT22;40769;51.512;5.494;2024-01-15T11:08:05;8.50;99.90
13808;DHT22;40769;51.512;5.494;2024-01-15T11:13:07;8.30;99.90
13808;DHT22;40769;51.512;5.494;2024-01-15T11:15:56;8.20;99.90
13808;DHT22;40769;51.512;5.494;2024-01-15T11:18:22;8.10;99.90
13808;DHT22;40769;51.512;5.494;2024-01-15T11:23:50;8.10;99.90
13808;DHT22;40769;51.512;5.494;2024-01-15T11:29:28;8.30;99.90
13808;DHT22;40769;51.512;5.494;2024-01-15T11:37:16;8.50;99.90
13808;DHT22;40769;51.512;5.494;2024-01-15T11:39:42;8.40;99.90
13808;DHT22;40769;51.512;5.494;2024-01-15T11:42:10;8.30;99.90
13808;DHT22;40769;51.512;5.494;2024-01-15T11:44:37;8.10;99.90
13808;DHT22;40769;51.512;5.494;2024-01-15T11:47:05;7.90;99.90
13808;DHT22;40769;51.512;5.494;2024-01-15T11:52:19;7.70;99.90
13808;DHT22;40769;51.512;5.494;2024-01-15T11:57:50;7.70;99.90
13808;DHT22;40769;51.512;5.494;2024-01-15T12:00:17;7.70;99.90
13808;DHT22;40769;51.512;5.494;2024-01-15T12:02:44;7.60;99.90
13808;DHT22;40769;51.512;5.494;2024-01-15T12:05:14;7.60;99.90
13808;DHT22;40769;51.512;5.494;2024-01-15T12:07:40;7.70;99.90
13808;DHT22;40769;51.512;5.494;2024-01-15T12:10:14;7.80;99.90
13808;DHT22;40769;51.512;5.494;2024-01-15T12:13:00;8.40;99.90
13808;DHT22;40769;51.512;5.494;2024-01-15T12:15:31;8.00;99.90
13808;DHT22;40769;51.512;5.494;2024-01-15T12:17:59;8.30;99.90
13808;DHT22;40769;51.512;5.494;2024-01-15T12:20:26;8.30;99.90
13808;DHT22;40769;51.512;5.494;2024-01-15T12:22:52;8.40;99.90
13808;DHT22;40769;51.512;5.494;2024-01-15T12:25:18;8.40;99.90
13808;DHT22;40769;51.512;5.494;2024-01-15T12:27:44;9.10;99.90
13808;DHT22;40769;51.512;5.494;2024-01-15T12:30:11;8.80;99.90
13808;DHT22;40769;51.512;5.494;2024-01-15T12:32:37;8.40;99.90
13808;DHT22;40769;51.512;5.494;2024-01-15T12:35:03;8.40;99.90
13808;DHT22;40769;51.512;5.494;2024-01-15T12:37:30;8.30;99.90
13808;DHT22;40769;51.512;5.494;2024-01-15T12:39:56;8.30;99.90
13808;DHT22;40769;51.512;5.494;2024-01-15T12:42:21;8.60;99.90
13808;DHT22;40769;51.512;5.494;2024-01-15T12:44:47;8.20;99.90
13808;DHT22;40769;51.512;5.494;2024-01-15T12:47:13;8.00;99.90
13808;DHT22;40769;51.512;5.494;2024-01-15T12:49:39;8.00;99.90
13808;DHT22;40769;51.512;5.494;2024-01-15T12:52:09;8.00;99.90
13808;DHT22;40769;51.512;5.494;2024-01-15T12:54:35;7.80;99.90
13808;DHT22;40769;51.512;5.494;2024-01-15T12:57:01;7.80;99.90
13808;DHT22;40769;51.512;5.494;2024-01-15T12:59:26;7.70;99.90
13808;DHT22;40769;51.512;5.494;2024-01-15T13:01:53;7.70;99.90
13808;DHT22;40769;51.512;5.494;2024-01-15T13:04:22;7.60;99.90
13808;DHT22;40769;51.512;5.494;2024-01-15T13:06:52;7.70;99.90
13808;DHT22;40769;51.512;5.494;2024-01-15T13:09:18;7.60;99.90
13808;DHT22;40769;51.512;5.494;2024-01-15T13:11:45;7.50;99.90
13808;DHT22;40769;51.512;5.494;2024-01-15T13:14:10;7.50;99.90
13808;DHT22;40769;51.512;5.494;2024-01-15T13:16:40;7.30;99.90
13808;DHT22;40769;51.512;5.494;2024-01-15T13:19:07;7.20;99.90
13808;DHT22;40769;51.512;5.494;2024-01-15T13:21:33;7.20;99.90
13808;DHT22;40769;51.512;5.494;2024-01-15T13:23:59;7.20;99.90
13808;DHT22;40769;51.512;5.494;2024-01-15T13:26:25;7.40;99.90
13808;DHT22;40769;51.512;5.494;2024-01-15T13:28:50;7.60;99.90
13808;DHT22;40769;51.512;5.494;2024-01-15T13:31:16;7.70;99.90
13808;DHT22;40769;51.512;5.494;2024-01-15T13:33:42;7.90;99.90
13808;DHT22;40769;51.512;5.494;2024-01-15T13:36:10;8.00;99.90
13808;DHT22;40769;51.512;5.494;2024-01-15T13:38:39;8.10;99.90
13808;DHT22;40769;51.512;5.494;2024-01-15T13:41:05;8.20;99.90
13808;DHT22;40769;51.512;5.494;2024-01-15T13:43:32;8.40;99.90
13808;DHT22;40769;51.512;5.494;2024-01-15T13:45:59;8.40;99.90
13808;DHT22;40769;51.512;5.494;2024-01-15T13:48:25;8.40;99.90
13808;DHT22;40769;51.512;5.494;2024-01-15T13:50:52;8.40;99.90
13808;DHT22;40769;51.512;5.494;2024-01-15T13:53:17;9.10;99.90
13808;DHT22;40769;51.512;5.494;2024-01-15T13:55:44;8.20;99.90
13808;DHT22;40769;51.512;5.494;2024-01-15T13:58:10;8.00;99.90
13808;DHT22;40769;51.512;5.494;2024-01-15T14:00:39;7.90;99.90
13808;DHT22;40769;51.512;5.494;2024-01-15T14:03:05;7.80;99.90
13808;DHT22;40769;51.512;5.494;2024-01-15T14:05:34;7.60;99.90
13808;DHT22;40769;51.512;5.494;2024-01-15T14:07:59;7.70;99.90
13808;DHT22;40769;51.512;5.494;2024-01-15T14:10:25;7.60;99.90
13808;DHT22;40769;51.512;5.494;2024-01-15T14:12:52;7.60;99.90
13808;DHT22;40769;51.512;5.494;2024-01-15T14:15:18;7.60;99.90
13808;DHT22;40769;51.512;5.494;2024-01-15T14:17:46;7.70;99.90
13808;DHT22;40769;51.512;5.494;2024-01-15T14:20:12;7.90;99.90
13808;DHT22;40769;51.512;5.494;2024-01-15T14:22:38;8.00;99.90
13808;DHT22;40769;51.512;5.494;2024-01-15T14:25:04;8.30;99.90
13808;DHT22;40769;51.512;5.494;2024-01-15T14:27:30;8.60;99.90
13808;DHT22;40769;51.512;5.494;2024-01-15T14:29:55;8.80;99.90
13808;DHT22;40769;51.512;5.494;2024-01-15T14:32:24;8.90;99.90
13808;DHT22;40769;51.512;5.494;2024-01-15T14:34:49;8.90;99.90
13808;DHT22;40769;51.512;5.494;2024-01-15T14:37:15;9.70;99.90
13808;DHT22;40769;51.512;5.494;2024-01-15T14:39:43;9.60;99.90
13808;DHT22;40769;51.512;5.494;2024-01-15T14:42:09;8.70;99.90
13808;DHT22;40769;51.512;5.494;2024-01-15T14:44:38;8.60;99.90
13808;DHT22;40769;51.512;5.494;2024-01-15T14:47:06;8.50;99.90
13808;DHT22;40769;51.512;5.494;2024-01-15T14:49:32;8.30;99.90
13808;DHT22;40769;51.512;5.494;2024-01-15T14:51:57;8.70;99.90
13808;DHT22;40769;51.512;5.494;2024-01-15T14:54:23;8.20;99.90
13808;DHT22;40769;51.512;5.494;2024-01-15T14:56:49;8.00;99.90
13808;DHT22;40769;51.512;5.494;2024-01-15T14:59:15;7.90;99.90
13808;DHT22;40769;51.512;5.494;2024-01-15T15:01:41;7.90;99.90
13808;DHT22;40769;51.512;5.494;2024-01-15T15:04:07;7.80;99.90
13808;DHT22;40769;51.512;5.494;2024-01-15T15:06:33;7.60;99.90
13808;DHT22;40769;51.512;5.494;2024-01-15T15:08:59;7.60;99.90
13808;DHT22;40769;51.512;5.494;2024-01-15T15:11:26;7.60;99.90
13808;DHT22;40769;51.512;5.494;2024-01-15T15:13:52;7.60;99.90
13808;DHT22;40769;51.512;5.494;2024-01-15T15:16:18;8.50;99.90
13808;DHT22;40769;51.512;5.494;2024-01-15T15:18:43;7.50;99.90
13808;DHT22;40769;51.512;5.494;2024-01-15T15:21:12;7.50;99.90
13808;DHT22;40769;51.512;5.494;2024-01-15T15:23:38;7.40;99.90
13808;DHT22;40769;51.512;5.494;2024-01-15T15:26:04;7.40;99.90
13808;DHT22;40769;51.512;5.494;2024-01-15T15:28:30;7.10;99.90
13808;DHT22;40769;51.512;5.494;2024-01-15T15:30:56;6.90;99.90
13808;DHT22;40769;51.512;5.494;2024-01-15T15:33:22;6.80;99.90
13808;DHT22;40769;51.512;5.494;2024-01-15T15:35:48;6.80;99.90
13808;DHT22;40769;51.512;5.494;2024-01-15T15:38:17;7.30;99.90
13808;DHT22;40769;51.512;5.494;2024-01-15T15:40:42;7.50;99.90
13808;DHT22;40769;51.512;5.494;2024-01-15T15:43:08;7.00;99.90
13808;DHT22;40769;51.512;5.494;2024-01-15T15:45:34;7.00;99.90
13808;DHT22;40769;51.512;5.494;2024-01-15T15:47:59;7.00;99.90
13808;DHT22;40769;51.512;5.494;2024-01-15T15:50:25;7.20;99.90
13808;DHT22;40769;51.512;5.494;2024-01-15T15:52:51;7.30;99.90
13808;DHT22;40769;51.512;5.494;2024-01-15T15:55:17;8.10;99.90
13808;DHT22;40769;51.512;5.494;2024-01-15T15:57:44;7.60;99.90
13808;DHT22;40769;51.512;5.494;2024-01-15T16:00:10;7.70;99.90